createdAt,value
2023-01-29T00:00:10.012Z,101063.56
2023-01-29T00:03:16.245Z,101070.47
2023-01-29T00:06:18.718Z,101065.34
2023-01-29T00:09:21.385Z,101092.66
2023-01-29T00:12:23.785Z,101071.13
2023-01-29T00:15:26.159Z,101057.59
2023-01-29T00:18:29.916Z,101061.84
2023-01-29T00:21:32.584Z,101072.88
2023-01-29T00:24:35.047Z,101075.47
2023-01-29T00:27:38.608Z,101095.22
2023-01-29T00:30:41.231Z,101074.72
2023-01-29T00:33:43.723Z,101058.50
2023-01-29T00:36:46.440Z,101076.56
2023-01-29T00:39:49.386Z,101111.00
2023-01-29T00:43:10.630Z,101090.44
2023-01-29T00:46:14.321Z,101125.69
2023-01-29T00:49:16.945Z,101108.81
2023-01-29T00:52:24.949Z,101097.69
2023-01-29T00:55:27.465Z,101112.41
2023-01-29T00:58:34.236Z,101118.41
2023-01-29T01:01:55.313Z,101126.22
2023-01-29T01:04:57.878Z,101103.06
2023-01-29T01:08:00.328Z,101133.13
2023-01-29T01:11:06.461Z,101074.88
2023-01-29T01:14:09.240Z,101110.97
2023-01-29T01:17:11.614Z,101106.69
2023-01-29T01:20:14.829Z,101134.13
2023-01-29T01:23:19.601Z,101134.91
2023-01-29T01:26:21.971Z,101119.56
2023-01-29T01:29:24.656Z,101141.78
2023-01-29T01:32:27.181Z,101121.28
2023-01-29T01:35:29.702Z,101145.38
2023-01-29T01:38:32.069Z,101143.59
2023-01-29T01:41:34.432Z,101143.53
2023-01-29T01:45:06.461Z,101115.31
2023-01-29T01:48:15.463Z,101151.34
2023-01-29T01:51:19.574Z,101113.63
2023-01-29T01:54:27.476Z,101124.75
2023-01-29T01:57:32.287Z,101147.91
2023-01-29T02:00:34.986Z,101118.78
2023-01-29T02:04:12.906Z,101123.06
2023-01-29T02:07:34.097Z,101164.97
2023-01-29T02:10:42.807Z,101101.69
2023-01-29T02:13:45.373Z,101170.16
2023-01-29T02:16:47.923Z,101135.84
2023-01-29T02:20:06.511Z,101175.22
2023-01-29T02:23:23.389Z,101178.69
2023-01-29T02:26:39.184Z,101170.16
2023-01-29T02:30:11.434Z,101175.28
2023-01-29T02:33:37.225Z,101165.03
2023-01-29T02:36:57.010Z,101172.75
2023-01-29T02:40:12.612Z,101162.53
2023-01-29T02:43:42.912Z,101175.31
2023-01-29T02:47:01.216Z,101179.59
2023-01-29T02:50:26.610Z,101152.94
2023-01-29T02:53:41.260Z,101189.75
2023-01-29T02:56:53.769Z,101175.25
2023-01-29T03:00:02.591Z,101178.66
2023-01-29T03:03:12.638Z,101185.47
2023-01-29T03:06:32.301Z,101159.72
2023-01-29T03:09:41.454Z,101199.91
2023-01-29T03:12:47.815Z,101162.34
2023-01-29T03:16:01.453Z,101187.19
2023-01-29T03:19:50.940Z,101192.31
2023-01-29T03:23:03.896Z,101199.97
2023-01-29T03:26:25.329Z,101167.47
2023-01-29T03:29:50.592Z,101164.03
2023-01-29T03:32:55.596Z,101162.19
2023-01-29T03:36:08.892Z,101179.28
2023-01-29T03:39:12.940Z,101199.00
2023-01-29T03:42:30.331Z,101196.50
2023-01-29T03:45:43.305Z,101189.63
2023-01-29T03:49:01.173Z,101200.84
2023-01-29T03:52:19.994Z,101206.78
2023-01-29T03:55:43.482Z,101204.25
2023-01-29T03:59:19.487Z,101200.81
2023-01-29T04:02:46.720Z,101192.31
2023-01-29T04:05:58.650Z,101173.44
2023-01-29T04:09:16.700Z,101204.31
2023-01-29T04:12:24.609Z,101200.94
2023-01-29T04:15:30.077Z,101169.22
2023-01-29T04:18:33.551Z,101194.03
2023-01-29T04:21:49.432Z,101189.00
2023-01-29T04:24:52.010Z,101184.00
2023-01-29T04:28:06.143Z,101189.91
2023-01-29T04:31:12.655Z,101173.63
2023-01-29T04:34:28.797Z,101173.63
2023-01-29T04:37:56.604Z,101189.84
2023-01-29T04:41:11.563Z,101189.00
2023-01-29T04:44:23.879Z,101168.44
2023-01-29T04:47:45.379Z,101148.75
2023-01-29T04:51:12.876Z,101180.44
2023-01-29T04:54:30.193Z,101187.28
2023-01-29T04:57:53.265Z,101141.19
2023-01-29T05:00:58.825Z,101159.22
2023-01-29T05:04:11.020Z,101148.84
2023-01-29T05:07:15.440Z,101172.00
2023-01-29T05:10:21.312Z,101171.13
2023-01-29T05:13:25.603Z,101167.78
2023-01-29T05:16:42.145Z,101175.47
2023-01-29T05:19:45.851Z,101178.91
2023-01-29T05:22:49.225Z,101154.09
2023-01-29T05:25:52.108Z,101153.22
2023-01-29T05:28:56.173Z,101179.91
2023-01-29T05:31:58.907Z,101176.38
2023-01-29T05:35:01.490Z,101157.50
2023-01-29T05:38:04.106Z,101173.81
2023-01-29T05:41:14.068Z,101183.31
2023-01-29T05:44:16.459Z,101155.00
2023-01-29T05:47:20.436Z,101172.84
2023-01-29T05:50:23.820Z,101182.22
2023-01-29T05:53:26.127Z,101213.00
2023-01-29T05:56:28.502Z,101189.81
2023-01-29T05:59:31.316Z,101191.59
2023-01-29T06:02:33.804Z,101193.19
2023-01-29T06:05:39.736Z,101195.72
2023-01-29T06:08:42.296Z,101148.56
2023-01-29T06:11:44.823Z,101226.56
2023-01-29T06:14:47.189Z,101228.34
2023-01-29T06:17:49.594Z,101200.91
2023-01-29T06:20:52.431Z,101228.25
2023-01-29T06:23:55.218Z,101234.25
2023-01-29T06:26:57.536Z,101238.50
2023-01-29T06:29:59.849Z,101253.13
2023-01-29T06:33:02.859Z,101216.34
2023-01-29T06:36:05.869Z,101244.53
2023-01-29T06:39:08.262Z,101234.34
2023-01-29T06:42:11.227Z,101246.34
2023-01-29T06:45:13.672Z,101236.03
2023-01-29T06:48:16.464Z,101214.63
2023-01-29T06:51:19.021Z,101245.47
2023-01-29T06:54:21.408Z,101249.75
2023-01-29T06:57:23.880Z,101249.75
2023-01-29T07:00:26.269Z,101242.00
2023-01-29T07:03:28.663Z,101206.88
2023-01-29T07:06:31.611Z,101213.78
2023-01-29T07:09:34.040Z,101236.13
2023-01-29T07:12:36.404Z,101229.28
2023-01-29T07:15:38.762Z,101232.69
2023-01-29T07:18:41.119Z,101239.63
2023-01-29T07:21:43.644Z,101239.56
2023-01-29T07:24:46.104Z,101229.38
2023-01-29T07:27:48.948Z,101210.44
2023-01-29T07:30:56.303Z,101238.84
2023-01-29T07:33:58.717Z,101189.09
2023-01-29T07:37:01.056Z,101239.66
2023-01-29T07:40:05.357Z,101223.31
2023-01-29T07:43:10.535Z,101234.47
2023-01-29T07:46:14.128Z,101218.19
2023-01-29T07:49:16.928Z,101231.19
2023-01-29T07:52:21.945Z,101228.72
2023-01-29T07:55:25.241Z,101228.66
2023-01-29T07:58:27.694Z,101202.94
2023-01-29T08:01:30.173Z,101203.00
2023-01-29T08:04:32.623Z,101211.72
2023-01-29T08:07:35.172Z,101202.31
2023-01-29T08:10:39.414Z,101204.88
2023-01-29T08:13:41.924Z,101227.13
2023-01-29T08:16:44.336Z,101227.16
2023-01-29T08:19:46.748Z,101216.03
2023-01-29T08:22:49.479Z,101241.63
2023-01-29T08:25:52.146Z,101250.22
2023-01-29T08:28:54.695Z,101245.94
2023-01-29T08:31:57.424Z,101224.50
2023-01-29T08:34:59.857Z,101252.81
2023-01-29T08:38:03.980Z,101270.00
2023-01-29T08:41:07.381Z,101228.06
2023-01-29T08:44:10.257Z,101259.78
2023-01-29T08:47:12.586Z,101264.09
2023-01-29T08:50:16.720Z,101230.59
2023-01-29T08:53:24.362Z,101262.31
2023-01-29T08:56:26.736Z,101262.34
2023-01-29T08:59:29.144Z,101235.78
2023-01-29T09:02:31.589Z,101238.31
2023-01-29T09:05:38.807Z,101232.38
2023-01-29T09:08:41.504Z,101241.72
2023-01-29T09:11:44.606Z,101264.03
2023-01-29T09:14:46.995Z,101270.84
2023-01-29T09:17:49.558Z,101285.44
2023-01-29T09:20:54.198Z,101256.34
2023-01-29T09:23:56.602Z,101277.78
2023-01-29T09:27:00.947Z,101262.38
2023-01-29T09:30:05.405Z,101261.53
2023-01-29T09:33:08.363Z,101294.13
2023-01-29T09:36:10.761Z,101301.88
2023-01-29T09:39:13.168Z,101288.94
2023-01-29T09:42:41.939Z,101272.66
2023-01-29T09:46:08.074Z,101296.66
2023-01-29T09:49:41.760Z,101296.72
2023-01-29T09:52:58.902Z,101292.47
2023-01-29T09:56:06.066Z,101274.47
2023-01-29T09:59:12.434Z,101297.56
2023-01-29T10:02:55.941Z,101290.69
2023-01-29T10:06:35.759Z,101300.13
2023-01-29T10:10:22.526Z,101295.88
2023-01-29T10:13:47.864Z,101296.72
2023-01-29T10:17:15.917Z,101296.75
2023-01-29T10:20:39.716Z,101310.38
2023-01-29T10:23:50.287Z,101241.88
2023-01-29T10:26:52.963Z,101233.34
2023-01-29T10:29:56.451Z,101284.78
2023-01-29T10:33:02.661Z,101279.63
2023-01-29T10:36:10.964Z,101252.25
2023-01-29T10:39:24.481Z,101235.13
2023-01-29T10:42:34.304Z,101268.50
2023-01-29T10:46:08.951Z,101276.16
2023-01-29T10:49:39.038Z,101272.78
2023-01-29T10:52:59.457Z,101266.75
2023-01-29T10:56:14.072Z,101264.19
2023-01-29T10:59:44.649Z,101249.66
2023-01-29T11:02:50.399Z,101217.16
2023-01-29T11:06:17.704Z,101243.72
2023-01-29T11:09:20.229Z,101254.00
2023-01-29T11:12:27.316Z,101243.72
2023-01-29T11:15:32.482Z,101236.88
2023-01-29T11:18:52.945Z,101234.28
2023-01-29T11:22:01.179Z,101219.75
2023-01-29T11:25:22.525Z,101220.59
2023-01-29T11:28:43.217Z,101212.09
2023-01-29T11:31:45.766Z,101204.38
2023-01-29T11:35:09.945Z,101206.03
2023-01-29T11:38:27.017Z,101213.75
2023-01-29T11:41:29.537Z,101190.66
2023-01-29T11:44:41.602Z,101197.53
2023-01-29T11:47:49.244Z,101192.41
2023-01-29T11:50:55.652Z,101156.47
2023-01-29T11:54:01.943Z,101175.31
2023-01-29T11:57:04.942Z,101149.63
2023-01-29T12:00:21.738Z,101168.47
2023-01-29T12:03:43.811Z,101148.81
2023-01-29T12:06:51.963Z,101172.75
2023-01-29T12:09:57.937Z,101147.94
2023-01-29T12:13:27.693Z,101170.16
2023-01-29T12:16:38.964Z,101168.50
2023-01-29T12:19:46.728Z,101176.16
2023-01-29T12:23:01.256Z,101146.25
2023-01-29T12:26:11.192Z,101165.06
2023-01-29T12:29:13.972Z,101158.22
2023-01-29T12:32:28.960Z,101152.22
2023-01-29T12:35:35.762Z,101145.38
2023-01-29T12:38:38.212Z,101137.69
2023-01-29T12:41:50.806Z,101146.25
2023-01-29T12:45:08.712Z,101145.34
2023-01-29T12:48:17.493Z,101155.66
2023-01-29T12:51:31.171Z,101140.25
2023-01-29T12:54:50.064Z,101125.72
2023-01-29T12:57:57.692Z,101147.09
2023-01-29T13:01:16.827Z,101120.59
2023-01-29T13:04:30.963Z,101125.69
2023-01-29T13:07:41.222Z,101131.69
2023-01-29T13:10:49.121Z,101121.44
2023-01-29T13:13:56.422Z,101128.25
2023-01-29T13:17:09.915Z,101106.03
2023-01-29T13:20:24.379Z,101127.44
2023-01-29T13:23:42.049Z,101121.44
2023-01-29T13:26:46.459Z,101100.91
2023-01-29T13:29:49.160Z,101106.03
2023-01-29T13:32:54.396Z,101084.66
2023-01-29T13:36:00.139Z,101066.72
2023-01-29T13:39:07.459Z,101107.75
2023-01-29T13:42:37.801Z,101109.44
2023-01-29T13:45:45.049Z,101104.31
2023-01-29T13:48:50.954Z,101097.44
2023-01-29T13:51:54.267Z,101072.66
2023-01-29T13:55:21.396Z,101072.69
2023-01-29T13:58:32.581Z,101100.06
2023-01-29T14:01:46.859Z,101104.31
2023-01-29T14:04:49.701Z,101065.00
2023-01-29T14:07:52.142Z,101061.56
2023-01-29T14:11:21.573Z,101096.63
2023-01-29T14:14:49.104Z,101095.75
2023-01-29T14:18:18.444Z,101102.59
2023-01-29T14:21:28.460Z,101085.47
2023-01-29T14:24:31.409Z,101092.31
2023-01-29T14:27:36.656Z,101094.03
2023-01-29T14:30:41.123Z,101078.63
2023-01-29T14:33:45.317Z,101068.41
2023-01-29T14:36:55.254Z,101091.41
2023-01-29T14:40:08.018Z,101061.47
2023-01-29T14:43:20.056Z,101099.09
2023-01-29T14:46:43.458Z,101095.69
2023-01-29T14:50:26.976Z,101093.94
2023-01-29T14:53:48.464Z,101063.13
2023-01-29T14:57:00.061Z,101070.00
2023-01-29T15:00:14.981Z,101075.97
2023-01-29T15:03:27.514Z,101103.34
2023-01-29T15:06:53.098Z,101100.75
2023-01-29T15:10:21.501Z,101105.91
2023-01-29T15:13:35.744Z,101107.63
2023-01-29T15:16:59.310Z,101102.47
2023-01-29T15:20:01.969Z,101109.25
2023-01-29T15:23:23.659Z,101092.97
2023-01-29T15:26:27.179Z,101108.41
2023-01-29T15:29:30.301Z,101101.53
2023-01-29T15:32:36.657Z,101122.88
2023-01-29T15:35:41.353Z,101125.47
2023-01-29T15:38:46.774Z,101130.59
2023-01-29T15:41:51.841Z,101135.72
2023-01-29T15:44:57.494Z,101144.34
2023-01-29T15:48:12.260Z,101111.75
2023-01-29T15:51:18.541Z,101130.59
2023-01-29T15:54:21.161Z,101127.09
2023-01-29T15:57:28.322Z,101110.81
2023-01-29T16:00:31.486Z,101130.53
2023-01-29T16:03:36.041Z,101100.63
2023-01-29T16:06:41.007Z,101110.09
2023-01-29T16:09:44.015Z,101127.16
2023-01-29T16:12:51.446Z,101101.50
2023-01-29T16:15:55.714Z,101119.38
2023-01-29T16:19:00.806Z,101104.06
2023-01-29T16:22:06.833Z,101119.44
2023-01-29T16:25:14.740Z,101115.97
2023-01-29T16:28:18.096Z,101145.00
2023-01-29T16:31:25.760Z,101149.22
2023-01-29T16:34:35.499Z,101147.50
2023-01-29T16:37:38.947Z,101121.81
2023-01-29T16:41:13.124Z,101151.75
2023-01-29T16:44:15.840Z,101149.25
2023-01-29T16:47:37.570Z,101153.41
2023-01-29T16:50:53.887Z,101136.44
2023-01-29T16:54:02.253Z,101117.63
2023-01-29T16:57:04.949Z,101113.31
2023-01-29T17:00:18.629Z,101126.22
2023-01-29T17:03:21.665Z,101105.44
2023-01-29T17:06:26.597Z,101123.63
2023-01-29T17:09:35.213Z,101103.06
2023-01-29T17:12:39.110Z,101110.81
2023-01-29T17:15:43.089Z,101113.38
2023-01-29T17:18:45.659Z,101082.47
2023-01-29T17:21:48.261Z,101107.19
2023-01-29T17:24:51.582Z,101090.06
2023-01-29T17:27:54.268Z,101085.63
2023-01-29T17:31:10.810Z,101074.53
2023-01-29T17:34:15.349Z,101090.06
2023-01-29T17:37:18.079Z,101055.75
2023-01-29T17:40:55.842Z,101083.94
2023-01-29T17:43:58.639Z,101087.41
2023-01-29T17:47:01.220Z,101059.13
2023-01-29T17:50:21.355Z,101040.38
2023-01-29T17:53:26.551Z,101082.22
2023-01-29T17:56:33.216Z,101085.69
2023-01-29T17:59:36.044Z,101081.34
2023-01-29T18:02:39.816Z,101053.94
2023-01-29T18:05:48.205Z,101077.09
2023-01-29T18:08:50.826Z,101090.81
2023-01-29T18:11:54.062Z,101079.66
2023-01-29T18:14:56.792Z,101083.00
2023-01-29T18:17:59.716Z,101090.72
2023-01-29T18:21:02.368Z,101092.50
2023-01-29T18:24:05.216Z,101058.28
2023-01-29T18:27:08.793Z,101089.16
2023-01-29T18:30:12.747Z,101095.19
2023-01-29T18:33:16.901Z,101081.53
2023-01-29T18:36:20.078Z,101088.31
2023-01-29T18:39:22.720Z,101065.97
2023-01-29T18:42:25.517Z,101083.13
2023-01-29T18:45:28.746Z,101059.22
2023-01-29T18:48:31.558Z,101066.03
2023-01-29T18:51:34.292Z,101059.16
2023-01-29T18:54:37.055Z,101059.25
2023-01-29T18:58:26.541Z,101072.91
2023-01-29T19:01:09.106Z,101051.53
2023-01-29T19:04:12.282Z,101078.91
2023-01-29T19:07:15.576Z,101062.69
2023-01-29T19:10:18.729Z,101073.88
2023-01-29T19:13:21.541Z,101071.31
2023-01-29T19:16:24.244Z,101068.72
2023-01-29T19:19:28.059Z,101050.75
2023-01-29T19:22:32.232Z,101071.28
2023-01-29T19:25:43.626Z,101064.44
2023-01-29T19:28:46.723Z,101058.44
2023-01-29T19:31:49.469Z,101050.75
2023-01-29T19:34:52.547Z,101049.00
2023-01-29T19:37:55.189Z,100999.38
2023-01-29T19:40:59.836Z,101015.63
2023-01-29T19:44:02.253Z,101056.59
2023-01-29T19:47:05.638Z,101058.34
2023-01-29T19:50:10.019Z,101054.97
2023-01-29T19:53:12.735Z,101025.84
2023-01-29T19:56:17.601Z,101027.53
2023-01-29T19:59:20.892Z,101032.59
2023-01-29T20:02:25.117Z,101028.19
2023-01-29T20:05:27.524Z,101027.38
2023-01-29T20:08:31.130Z,101027.34
2023-01-29T20:11:34.084Z,101015.41
2023-01-29T20:14:36.449Z,101015.50
2023-01-29T20:17:39.268Z,101054.81
2023-01-29T20:20:46.312Z,101059.06
2023-01-29T20:23:50.429Z,101026.56
2023-01-29T20:26:53.023Z,101042.75
2023-01-29T20:29:55.827Z,101035.22
2023-01-29T20:32:58.661Z,101032.59
2023-01-29T20:36:03.314Z,101046.22
2023-01-29T20:39:05.637Z,101054.81
2023-01-29T20:42:08.313Z,101042.03
2023-01-29T20:45:10.888Z,101050.63
2023-01-29T20:48:13.564Z,100997.66
2023-01-29T20:51:17.751Z,101047.28
2023-01-29T20:54:20.488Z,101045.56
2023-01-29T20:57:23.204Z,101026.72
2023-01-29T21:00:25.530Z,101031.06
2023-01-29T21:03:28.273Z,101067.78
2023-01-29T21:06:31.018Z,101060.97
2023-01-29T21:09:33.510Z,101062.63
2023-01-29T21:12:36.156Z,101038.72
2023-01-29T21:15:38.890Z,100995.91
2023-01-29T21:18:41.086Z,101050.63
2023-01-29T21:21:43.432Z,101020.63
2023-01-29T21:24:46.187Z,101033.44
2023-01-29T21:27:49.261Z,100992.38
2023-01-29T21:31:02.652Z,101046.34
2023-01-29T21:34:05.717Z,101049.81
2023-01-29T21:37:09.672Z,101023.22
2023-01-29T21:40:13.627Z,101050.56
2023-01-29T21:43:16.291Z,101047.16
2023-01-29T21:46:18.660Z,101021.53
2023-01-29T21:49:21.596Z,101035.34
2023-01-29T21:52:23.967Z,101027.63
2023-01-29T21:55:26.376Z,101011.38
2023-01-29T21:58:29.874Z,101010.44
2023-01-29T22:01:37.916Z,100991.59
2023-01-29T22:04:42.383Z,101001.03
2023-01-29T22:07:44.850Z,101005.28
2023-01-29T22:10:47.410Z,101003.50
2023-01-29T22:13:50.024Z,100999.31
2023-01-29T22:16:52.533Z,100973.63
2023-01-29T22:19:55.045Z,100986.41
2023-01-29T22:23:00.733Z,100998.47
2023-01-29T22:26:07.588Z,100987.16
2023-01-29T22:29:13.824Z,101005.75
2023-01-29T22:32:16.479Z,100995.53
2023-01-29T22:35:18.937Z,100959.72
2023-01-29T22:38:22.703Z,100945.94
2023-01-29T22:41:25.056Z,100976.78
2023-01-29T22:44:27.401Z,100981.13
2023-01-29T22:47:32.818Z,100944.25
2023-01-29T22:50:35.180Z,100975.88
2023-01-29T22:53:44.658Z,100988.72
2023-01-29T22:56:47.048Z,100987.03
2023-01-29T22:59:49.472Z,100961.56
2023-01-29T23:02:52.156Z,100969.22
2023-01-29T23:05:54.494Z,100975.25
2023-01-29T23:08:57.138Z,100950.41
2023-01-29T23:11:59.531Z,100961.50
2023-01-29T23:15:01.982Z,100935.91
2023-01-29T23:18:05.742Z,100936.75
2023-01-29T23:21:08.864Z,100914.59
2023-01-29T23:24:11.511Z,100963.41
2023-01-29T23:27:16.510Z,100960.91
2023-01-29T23:30:19.303Z,100967.59
2023-01-29T23:33:22.145Z,100929.94
2023-01-29T23:36:24.671Z,100929.09
2023-01-29T23:39:27.047Z,100956.53
2023-01-29T23:42:29.443Z,100951.44
2023-01-29T23:45:31.812Z,100946.31
2023-01-29T23:48:34.312Z,100960.00
2023-01-29T23:51:36.717Z,100936.09
2023-01-29T23:54:39.043Z,100949.78
2023-01-29T23:57:41.467Z,100952.13
